createdAt,value
2023-04-03T00:02:07.521Z,95931.31
2023-04-03T00:04:34.598Z,95934.88
2023-04-03T00:07:01.650Z,95930.06
2023-04-03T00:09:28.661Z,95923.06
2023-04-03T00:11:55.728Z,95926.13
2023-04-03T00:14:22.585Z,95924.88
2023-04-03T00:16:49.549Z,95920.91
2023-04-03T00:19:16.877Z,95925.03
2023-04-03T00:21:43.828Z,95927.69
2023-04-03T00:24:10.774Z,95926.81
2023-04-03T00:26:37.602Z,95928.94
2023-04-03T00:29:04.482Z,95931.88
2023-04-03T00:31:31.396Z,95918.22
2023-04-03T00:33:58.388Z,95923.16
2023-04-03T00:36:26.003Z,95924.38
2023-04-03T00:38:53.387Z,95925.13
2023-04-03T00:41:21.048Z,95928.19
2023-04-03T00:43:47.908Z,95916.78
2023-04-03T00:46:15.239Z,95914.47
2023-04-03T00:48:44.534Z,95906.38
2023-04-03T00:51:17.428Z,95900.16
2023-04-03T00:53:48.555Z,95908.00
2023-04-03T00:56:18.675Z,95899.31
2023-04-03T00:58:52.910Z,95901.81
2023-04-03T01:01:23.282Z,95901.75
2023-04-03T01:03:51.480Z,95899.63
2023-04-03T01:06:20.760Z,95902.56
2023-04-03T01:08:49.746Z,95902.78
2023-04-03T01:11:16.676Z,95903.63
2023-04-03T01:13:44.292Z,95893.88
2023-04-03T01:16:11.571Z,95895.31
2023-04-03T01:18:39.961Z,95897.25
2023-04-03T01:21:25.281Z,95899.63
2023-04-03T01:23:55.104Z,95901.13
2023-04-03T01:26:22.514Z,95899.03
2023-04-03T01:28:49.446Z,95901.88
2023-04-03T01:31:47.213Z,95905.16
2023-04-03T01:34:14.146Z,95904.28
2023-04-03T01:36:41.262Z,95896.34
2023-04-03T01:39:08.227Z,95904.94
2023-04-03T01:41:35.323Z,95899.72
2023-04-03T01:44:02.348Z,95899.97
2023-04-03T01:46:29.208Z,95895.59
2023-04-03T01:48:56.235Z,95900.69
2023-04-03T01:51:23.052Z,95897.56
2023-04-03T01:53:50.059Z,95896.88
2023-04-03T01:56:17.053Z,95892.31
2023-04-03T01:58:44.183Z,95895.38
2023-04-03T02:01:11.538Z,95904.41
2023-04-03T02:03:38.511Z,95900.47
2023-04-03T02:06:05.813Z,95899.63
2023-04-03T02:08:32.586Z,95896.94
2023-04-03T02:10:59.483Z,95903.72
2023-04-03T02:13:26.418Z,95897.16
2023-04-03T02:15:53.211Z,95898.72
2023-04-03T02:18:20.050Z,95903.56
2023-04-03T02:20:47.884Z,95898.31
2023-04-03T02:23:14.784Z,95892.47
2023-04-03T02:25:41.672Z,95896.31
2023-04-03T02:28:08.605Z,95895.13
2023-04-03T02:30:36.136Z,95898.72
2023-04-03T02:33:03.338Z,95890.72
2023-04-03T02:35:30.594Z,95896.94
2023-04-03T02:37:57.572Z,95900.81
2023-04-03T02:40:24.410Z,95902.75
2023-04-03T02:42:51.761Z,95897.81
2023-04-03T02:45:18.640Z,95907.56
2023-04-03T02:47:45.636Z,95897.81
2023-04-03T02:50:12.640Z,95898.59
2023-04-03T02:52:39.620Z,95900.38
2023-04-03T02:55:07.610Z,95899.47
2023-04-03T02:57:34.750Z,95899.19
2023-04-03T03:00:01.706Z,95903.81
2023-04-03T03:02:28.867Z,95911.38
2023-04-03T03:04:56.251Z,95902.47
2023-04-03T03:07:23.118Z,95900.63
2023-04-03T03:09:49.999Z,95912.66
2023-04-03T03:12:17.002Z,95909.78
2023-04-03T03:14:44.137Z,95907.72
2023-04-03T03:17:11.055Z,95909.78
2023-04-03T03:19:38.038Z,95906.59
2023-04-03T03:22:04.991Z,95905.16
2023-04-03T03:24:32.024Z,95915.09
2023-04-03T03:26:58.925Z,95914.03
2023-04-03T03:29:25.722Z,95916.97
2023-04-03T03:31:52.799Z,95907.09
2023-04-03T03:34:19.776Z,95907.53
2023-04-03T03:36:46.794Z,95911.63
2023-04-03T03:39:13.980Z,95916.03
2023-04-03T03:41:40.900Z,95909.66
2023-04-03T03:44:07.766Z,95916.16
2023-04-03T03:46:34.785Z,95901.03
2023-04-03T03:49:01.885Z,95912.66
2023-04-03T03:51:28.838Z,95918.91
2023-04-03T03:53:55.868Z,95921.84
2023-04-03T03:56:22.946Z,95911.31
2023-04-03T03:58:50.814Z,95919.59
2023-04-03T04:01:18.373Z,95921.41
2023-04-03T04:03:45.356Z,95912.59
2023-04-03T04:06:12.536Z,95927.75
2023-04-03T04:08:39.447Z,95908.72
2023-04-03T04:11:06.317Z,95925.25
2023-04-03T04:13:33.410Z,95933.53
2023-04-03T04:16:00.462Z,95936.84
2023-04-03T04:18:27.305Z,95935.44
2023-04-03T04:20:54.341Z,95935.03
2023-04-03T04:23:21.320Z,95935.66
2023-04-03T04:25:49.784Z,95935.44
2023-04-03T04:28:17.095Z,95941.22
2023-04-03T04:30:44.124Z,95929.16
2023-04-03T04:33:11.137Z,95926.31
2023-04-03T04:35:38.450Z,95930.03
2023-04-03T04:38:06.113Z,95928.63
2023-04-03T04:40:32.888Z,95924.78
2023-04-03T04:42:59.843Z,95923.16
2023-04-03T04:45:26.896Z,95919.47
2023-04-03T04:47:56.980Z,95927.41
2023-04-03T04:50:24.108Z,95931.31
2023-04-03T04:52:51.267Z,95932.38
2023-04-03T04:55:18.249Z,95939.59
2023-04-03T04:57:45.554Z,95942.69
2023-04-03T05:00:13.230Z,95934.22
2023-04-03T05:02:40.384Z,95936.69
2023-04-03T05:05:07.732Z,95938.56
2023-04-03T05:07:34.757Z,95940.81
2023-04-03T05:10:01.552Z,95947.81
2023-04-03T05:12:28.359Z,95929.25
2023-04-03T05:14:55.707Z,95932.91
2023-04-03T05:17:22.685Z,95942.25
2023-04-03T05:19:49.748Z,95940.16
2023-04-03T05:22:16.657Z,95949.22
2023-04-03T05:24:43.583Z,95950.03
2023-04-03T05:27:10.659Z,95948.31
2023-04-03T05:29:37.453Z,95949.78
2023-04-03T05:32:04.847Z,95955.31
2023-04-03T05:34:31.819Z,95955.28
2023-04-03T05:36:58.844Z,95956.06
2023-04-03T05:39:26.914Z,95952.34
2023-04-03T05:41:53.814Z,95960.19
2023-04-03T05:44:20.987Z,95949.88
2023-04-03T05:46:48.664Z,95961.81
2023-04-03T05:49:15.809Z,95958.94
2023-04-03T05:51:42.814Z,95966.19
2023-04-03T05:54:19.376Z,95965.13
2023-04-03T05:56:46.492Z,95963.06
2023-04-03T05:59:13.392Z,95972.56
2023-04-03T06:01:40.300Z,95970.50
2023-04-03T06:04:10.397Z,95969.69
2023-04-03T06:06:48.562Z,95975.09
2023-04-03T06:09:15.971Z,95977.97
2023-04-03T06:11:43.043Z,95976.34
2023-04-03T06:14:10.257Z,95970.63
2023-04-03T06:16:39.489Z,95985.53
2023-04-03T06:19:08.629Z,95987.22
2023-04-03T06:21:37.117Z,95981.47
2023-04-03T06:24:07.542Z,95988.88
2023-04-03T06:26:35.012Z,95984.75
2023-04-03T06:29:02.764Z,95981.84
2023-04-03T06:31:29.681Z,95988.41
2023-04-03T06:33:57.875Z,95993.38
2023-04-03T06:36:25.682Z,95984.72
2023-04-03T06:38:52.822Z,95995.44
2023-04-03T06:41:19.681Z,95995.72
2023-04-03T06:43:46.527Z,95998.28
2023-04-03T06:46:22.009Z,95994.81
2023-04-03T06:48:49.236Z,95993.13
2023-04-03T06:51:27.438Z,95997.44
2023-04-03T06:53:55.799Z,95999.63
2023-04-03T06:56:23.341Z,95995.19
2023-04-03T06:58:51.303Z,96010.25
2023-04-03T07:01:20.698Z,96008.00
2023-04-03T07:03:49.395Z,96005.75
2023-04-03T07:06:17.154Z,96003.78
2023-04-03T07:08:44.052Z,95996.91
2023-04-03T07:11:11.312Z,96001.19
2023-04-03T07:13:38.520Z,95996.16
2023-04-03T07:16:07.410Z,96000.00
2023-04-03T07:18:34.715Z,96009.34
2023-04-03T07:21:01.554Z,96005.00
2023-04-03T07:23:28.725Z,96007.25
2023-04-03T07:25:55.695Z,96017.88
2023-04-03T07:28:24.332Z,96022.09
2023-04-03T07:31:02.451Z,96013.75
2023-04-03T07:33:29.467Z,96029.34
2023-04-03T07:35:56.464Z,96018.09
2023-04-03T07:38:23.805Z,96011.84
2023-04-03T07:40:51.864Z,96025.31
2023-04-03T07:43:18.954Z,96019.31
2023-04-03T07:45:46.373Z,96024.19
2023-04-03T07:48:13.268Z,96037.66
2023-04-03T07:50:43.168Z,96023.00
2023-04-03T07:53:10.072Z,96017.50
2023-04-03T07:55:44.042Z,96014.75
2023-04-03T07:58:15.674Z,96021.69
2023-04-03T08:00:42.983Z,96020.22
2023-04-03T08:03:12.577Z,96014.75
2023-04-03T08:05:43.010Z,96023.28
2023-04-03T08:08:10.945Z,96028.56
2023-04-03T08:10:38.140Z,96020.69
2023-04-03T08:13:05.759Z,96018.00
2023-04-03T08:15:32.949Z,96027.59
2023-04-03T08:18:00.921Z,96025.00
2023-04-03T08:20:28.402Z,96031.16
2023-04-03T08:22:55.541Z,96031.84
2023-04-03T08:25:22.355Z,96026.91
2023-04-03T08:27:49.245Z,96035.88
2023-04-03T08:30:16.237Z,96020.31
2023-04-03T08:32:44.230Z,96033.69
2023-04-03T08:35:12.026Z,96030.28
2023-04-03T08:37:39.109Z,96023.72
2023-04-03T08:40:07.382Z,96031.78
2023-04-03T08:42:53.624Z,96029.53
2023-04-03T08:45:41.339Z,96034.19
2023-04-03T08:48:12.754Z,96035.09
2023-04-03T08:50:41.937Z,96037.03
2023-04-03T08:53:16.858Z,96038.69
2023-04-03T08:55:45.555Z,96041.09
2023-04-03T08:58:17.734Z,96034.44
2023-04-03T09:00:51.180Z,96045.06
2023-04-03T09:03:20.663Z,96038.13
2023-04-03T09:06:07.790Z,96042.81
2023-04-03T09:08:37.399Z,96044.09
2023-04-03T09:11:35.234Z,96041.41
2023-04-03T09:14:33.402Z,96040.72
2023-04-03T09:17:02.127Z,96032.53
2023-04-03T09:19:49.177Z,96034.22
2023-04-03T09:22:26.804Z,96039.00
2023-04-03T09:25:11.818Z,96034.47
2023-04-03T09:27:38.951Z,96032.34
2023-04-03T09:30:08.168Z,96037.28
2023-04-03T09:32:36.259Z,96046.38
2023-04-03T09:35:20.711Z,96048.53
2023-04-03T09:37:52.975Z,96044.41
2023-04-03T09:40:40.221Z,96053.97
2023-04-03T09:43:30.500Z,96050.97
2023-04-03T09:45:58.877Z,96051.66
2023-04-03T09:48:26.655Z,96052.72
2023-04-03T09:51:00.373Z,96049.44
2023-04-03T09:53:34.169Z,96059.97
2023-04-03T09:56:01.700Z,96065.06
2023-04-03T09:58:49.140Z,96071.88
2023-04-03T10:01:33.463Z,96063.34
2023-04-03T10:04:14.643Z,96063.56
2023-04-03T10:06:48.054Z,96055.09
2023-04-03T10:09:22.060Z,96074.72
2023-04-03T10:12:08.040Z,96058.84
2023-04-03T10:14:39.364Z,96052.41
2023-04-03T10:17:19.275Z,96057.09
2023-04-03T10:20:24.338Z,96060.75
2023-04-03T10:22:51.996Z,96062.03
2023-04-03T10:25:39.970Z,96047.22
2023-04-03T10:28:32.877Z,96055.81
2023-04-03T10:31:21.392Z,96046.50
2023-04-03T10:34:07.319Z,96049.00
2023-04-03T10:36:57.523Z,96055.34
2023-04-03T10:39:36.754Z,96054.88
2023-04-03T10:42:17.381Z,96043.84
2023-04-03T10:44:50.851Z,96053.47
2023-04-03T10:47:47.006Z,96044.88
2023-04-03T10:50:55.733Z,96067.56
2023-04-03T10:53:33.846Z,96051.91
2023-04-03T10:56:41.456Z,96048.50
2023-04-03T10:59:42.845Z,96049.31
2023-04-03T11:02:16.793Z,96041.31
2023-04-03T11:04:45.936Z,96048.91
2023-04-03T11:07:24.425Z,96063.59
2023-04-03T11:09:56.907Z,96052.06
2023-04-03T11:12:42.017Z,96045.69
2023-04-03T11:15:13.573Z,96049.06
2023-04-03T11:18:24.200Z,96082.91
2023-04-03T11:21:11.723Z,96052.03
2023-04-03T11:23:48.907Z,96060.09
2023-04-03T11:26:19.775Z,96040.97
2023-04-03T11:28:47.381Z,96057.09
2023-04-03T11:31:21.952Z,96035.00
2023-04-03T11:34:37.484Z,96056.63
2023-04-03T11:37:07.058Z,96043.16
2023-04-03T11:39:35.259Z,96039.22
2023-04-03T11:42:41.313Z,96043.22
2023-04-03T11:45:25.992Z,96039.25
2023-04-03T11:48:21.215Z,96032.50
2023-04-03T11:50:51.520Z,96050.78
2023-04-03T11:53:18.458Z,96037.81
2023-04-03T11:55:47.937Z,96050.50
2023-04-03T11:58:28.979Z,96028.91
2023-04-03T12:01:12.246Z,96022.06
2023-04-03T12:03:43.485Z,96020.91
2023-04-03T12:06:17.980Z,96020.81
2023-04-03T12:08:47.594Z,96006.31
2023-04-03T12:11:14.821Z,96014.91
2023-04-03T12:13:42.436Z,96024.41
2023-04-03T12:16:35.428Z,96018.22
2023-04-03T12:19:35.489Z,96013.75
2023-04-03T12:22:14.096Z,96025.63
2023-04-03T12:24:43.795Z,96012.84
2023-04-03T12:27:15.656Z,96001.81
2023-04-03T12:29:57.299Z,95998.59
2023-04-03T12:32:38.367Z,96015.03
2023-04-03T12:35:13.514Z,96020.91
2023-04-03T12:38:25.655Z,96029.44
2023-04-03T12:41:12.877Z,96015.50
2023-04-03T12:43:51.081Z,95992.28
2023-04-03T12:46:22.459Z,95999.84
2023-04-03T12:48:57.815Z,96007.56
2023-04-03T12:51:36.800Z,95984.25
2023-04-03T12:54:06.417Z,95995.38
2023-04-03T12:56:33.843Z,95998.97
2023-04-03T12:59:23.702Z,95994.78
2023-04-03T13:02:03.818Z,95992.22
2023-04-03T13:04:32.268Z,96014.38
2023-04-03T13:06:59.383Z,95992.84
2023-04-03T13:09:30.675Z,96017.75
2023-04-03T13:12:01.479Z,95998.28
2023-04-03T13:14:29.888Z,95995.94
2023-04-03T13:17:17.116Z,95994.00
2023-04-03T13:19:44.853Z,95993.53
2023-04-03T13:22:31.544Z,95995.13
2023-04-03T13:25:02.644Z,96000.22
2023-04-03T13:27:31.314Z,95991.41
2023-04-03T13:29:59.154Z,95982.88
2023-04-03T13:32:27.315Z,95984.66
2023-04-03T13:34:54.572Z,95996.41
2023-04-03T13:37:24.796Z,95984.13
2023-04-03T13:40:09.816Z,95995.69
2023-04-03T13:42:39.134Z,95983.59
2023-04-03T13:45:21.481Z,95985.44
2023-04-03T13:47:49.934Z,95983.09
2023-04-03T13:50:19.815Z,95962.34
2023-04-03T13:52:53.076Z,95966.31
2023-04-03T13:55:25.976Z,95955.91
2023-04-03T13:58:03.557Z,95957.97
2023-04-03T14:00:53.255Z,95962.50
2023-04-03T14:03:43.954Z,95948.16
2023-04-03T14:06:16.775Z,95964.59
2023-04-03T14:08:44.645Z,95957.75
2023-04-03T14:11:22.083Z,95954.16
2023-04-03T14:13:49.568Z,95958.25
2023-04-03T14:16:21.480Z,95951.44
2023-04-03T14:18:49.183Z,95948.75
2023-04-03T14:21:17.166Z,95954.38
2023-04-03T14:23:44.548Z,95942.63
2023-04-03T14:26:17.848Z,95936.16
2023-04-03T14:28:48.813Z,95947.69
2023-04-03T14:31:16.262Z,95954.78
2023-04-03T14:33:43.769Z,95938.59
2023-04-03T14:36:19.178Z,95954.31
2023-04-03T14:38:46.400Z,95926.28
2023-04-03T14:41:17.604Z,95946.00
2023-04-03T14:43:45.101Z,95928.91
2023-04-03T14:46:19.804Z,95920.81
2023-04-03T14:48:46.902Z,95930.09
2023-04-03T14:51:14.046Z,95923.31
2023-04-03T14:53:41.976Z,95926.72
2023-04-03T14:56:23.221Z,95929.22
2023-04-03T14:58:51.765Z,95913.69
2023-04-03T15:01:19.841Z,95920.94
2023-04-03T15:03:46.913Z,95937.94
2023-04-03T15:06:14.053Z,95934.63
2023-04-03T15:08:43.002Z,95933.13
2023-04-03T15:11:11.387Z,95909.81
2023-04-03T15:13:39.122Z,95918.91
2023-04-03T15:16:07.051Z,95919.19
2023-04-03T15:18:37.860Z,95924.22
2023-04-03T15:21:05.618Z,95911.44
2023-04-03T15:23:32.655Z,95940.94
2023-04-03T15:25:59.608Z,95918.72
2023-04-03T15:28:34.860Z,95901.38
2023-04-03T15:31:01.829Z,95912.31
2023-04-03T15:33:28.772Z,95914.94
2023-04-03T15:36:02.945Z,95914.09
2023-04-03T15:38:35.472Z,95928.59
2023-04-03T15:41:02.453Z,95922.31
2023-04-03T15:43:29.374Z,95926.13
2023-04-03T15:45:58.157Z,95929.44
2023-04-03T15:48:25.019Z,95940.13
2023-04-03T15:50:52.064Z,95932.28
2023-04-03T15:53:18.800Z,95918.03
2023-04-03T15:55:45.904Z,95924.84
2023-04-03T15:58:12.824Z,95935.69
2023-04-03T16:00:39.938Z,95927.88
2023-04-03T16:03:12.033Z,95927.13
2023-04-03T16:05:39.866Z,95921.31
2023-04-03T16:08:07.892Z,95929.69
2023-04-03T16:10:37.017Z,95938.16
2023-04-03T16:13:04.413Z,95932.63
2023-04-03T16:15:31.949Z,95932.88
2023-04-03T16:17:59.756Z,95953.59
2023-04-03T16:20:27.119Z,95949.13
2023-04-03T16:22:54.015Z,95932.59
2023-04-03T16:25:21.794Z,95935.53
2023-04-03T16:27:48.878Z,95935.53
2023-04-03T16:30:15.856Z,95947.59
2023-04-03T16:32:42.856Z,95939.78
2023-04-03T16:35:11.984Z,95949.72
2023-04-03T16:37:40.065Z,95928.25
2023-04-03T16:40:08.085Z,95934.81
2023-04-03T16:42:36.526Z,95941.00
2023-04-03T16:45:04.877Z,95942.69
2023-04-03T16:47:31.852Z,95948.16
2023-04-03T16:49:59.007Z,95935.19
2023-04-03T16:52:26.056Z,95941.19
2023-04-03T16:54:56.696Z,95937.91
2023-04-03T16:57:25.965Z,95936.03
2023-04-03T16:59:53.188Z,95939.94
2023-04-03T17:02:21.013Z,95942.19
2023-04-03T17:04:48.660Z,95933.06
2023-04-03T17:07:17.171Z,95938.81
2023-04-03T17:09:43.992Z,95946.13
2023-04-03T17:12:11.051Z,95937.72
2023-04-03T17:14:38.027Z,95941.78
2023-04-03T17:17:05.329Z,95942.63
2023-04-03T17:19:32.169Z,95942.44
2023-04-03T17:21:59.323Z,95942.69
2023-04-03T17:24:26.357Z,95944.97
2023-04-03T17:26:53.358Z,95935.25
2023-04-03T17:29:20.633Z,95935.25
2023-04-03T17:31:47.680Z,95947.44
2023-04-03T17:34:14.636Z,95932.00
2023-04-03T17:36:42.047Z,95937.94
2023-04-03T17:39:09.063Z,95935.50
2023-04-03T17:41:36.089Z,95948.09
2023-04-03T17:44:06.430Z,95942.34
2023-04-03T17:46:34.787Z,95956.19
2023-04-03T17:49:03.536Z,95931.81
2023-04-03T17:51:30.892Z,95939.66
2023-04-03T17:53:57.745Z,95941.34
2023-04-03T17:56:27.214Z,95936.56
2023-04-03T17:58:58.601Z,95939.66
2023-04-03T18:01:31.512Z,95935.97
2023-04-03T18:04:00.769Z,95931.44
2023-04-03T18:06:38.790Z,95924.63
2023-04-03T18:09:14.850Z,95943.81
2023-04-03T18:11:41.866Z,95941.34
2023-04-03T18:14:08.738Z,95949.00
2023-04-03T18:16:35.958Z,95939.50
2023-04-03T18:21:36.817Z,95937.22
2023-04-03T18:24:04.727Z,95946.31
2023-04-03T18:26:31.571Z,95944.44
2023-04-03T18:29:00.764Z,95942.81
2023-04-03T18:31:27.703Z,95943.00
2023-04-03T18:33:56.444Z,95950.63
2023-04-03T18:36:23.437Z,95938.44
2023-04-03T18:38:50.450Z,95949.00
2023-04-03T18:41:17.857Z,95957.88
2023-04-03T18:43:44.932Z,95970.88
2023-04-03T18:46:11.827Z,95952.69
2023-04-03T18:48:41.685Z,95956.00
2023-04-03T18:51:11.826Z,95967.94
2023-04-03T18:56:10.666Z,95964.88
2023-04-03T18:58:37.903Z,95972.09
2023-04-03T19:01:06.718Z,95973.53
2023-04-03T19:03:34.051Z,95958.69
2023-04-03T19:06:01.885Z,95965.28
2023-04-03T19:08:28.984Z,95960.94
2023-04-03T19:10:55.815Z,95956.00
2023-04-03T19:13:22.856Z,95954.78
2023-04-03T19:15:51.002Z,95959.50
2023-04-03T19:18:17.908Z,95956.59
2023-04-03T19:20:44.816Z,95958.44
2023-04-03T19:23:13.260Z,95955.75
2023-04-03T19:25:41.782Z,95960.09
2023-04-03T19:28:09.184Z,95959.88
2023-04-03T19:30:38.305Z,95955.97
2023-04-03T19:33:05.906Z,95955.97
2023-04-03T19:35:32.723Z,95959.47
2023-04-03T19:37:59.555Z,95951.03
2023-04-03T19:40:29.346Z,95954.75
2023-04-03T19:42:56.186Z,95952.66
2023-04-03T19:45:23.250Z,95956.78
2023-04-03T19:47:51.254Z,95965.97
2023-04-03T19:50:18.551Z,95958.75
2023-04-03T19:52:45.616Z,95945.97
2023-04-03T19:55:12.486Z,95950.28
2023-04-03T19:57:39.473Z,95940.16
2023-04-03T20:00:07.327Z,95934.16
2023-04-03T20:02:34.193Z,95941.13
2023-04-03T20:05:01.140Z,95942.78
2023-04-03T20:07:28.854Z,95931.22
2023-04-03T20:09:55.790Z,95935.69
2023-04-03T20:12:22.797Z,95935.47
2023-04-03T20:14:49.880Z,95942.69
2023-04-03T20:17:16.813Z,95935.22
2023-04-03T20:19:44.017Z,95928.63
2023-04-03T20:22:10.840Z,95928.00
2023-04-03T20:24:37.702Z,95929.84
2023-04-03T20:27:05.680Z,95936.84
2023-04-03T20:29:32.626Z,95928.81
2023-04-03T20:31:59.672Z,95924.47
2023-04-03T20:34:26.829Z,95914.16
2023-04-03T20:36:54.167Z,95921.31
2023-04-03T20:39:24.430Z,95916.97
2023-04-03T20:41:51.736Z,95929.09
2023-04-03T20:44:20.040Z,95918.78
2023-04-03T20:46:52.946Z,95923.69
2023-04-03T20:49:21.346Z,95918.75
2023-04-03T20:51:51.455Z,95921.41
2023-04-03T20:54:18.810Z,95924.88
2023-04-03T20:56:47.603Z,95921.38
2023-04-03T20:59:15.076Z,95914.56
2023-04-03T21:01:42.882Z,95912.06
2023-04-03T21:04:09.754Z,95906.13
2023-04-03T21:07:13.855Z,95909.13
2023-04-03T21:10:18.810Z,95904.31
2023-04-03T21:13:24.160Z,95897.31
2023-04-03T21:15:55.246Z,95899.34
2023-04-03T21:18:31.974Z,95897.53
2023-04-03T21:20:58.807Z,95891.72
2023-04-03T21:23:28.799Z,95893.34
2023-04-03T21:25:56.236Z,95888.56
2023-04-03T21:28:25.096Z,95893.28
2023-04-03T21:30:52.216Z,95888.31
2023-04-03T21:33:19.185Z,95889.78
2023-04-03T21:35:46.569Z,95885.28
2023-04-03T21:38:15.559Z,95879.66
2023-04-03T21:40:46.924Z,95875.47
2023-04-03T21:43:14.030Z,95889.22
2023-04-03T21:45:41.022Z,95883.44
2023-04-03T21:48:10.500Z,95878.69
2023-04-03T21:50:37.541Z,95881.34
2023-04-03T21:53:04.863Z,95891.66
2023-04-03T21:55:31.918Z,95882.63
2023-04-03T21:57:59.534Z,95876.66
2023-04-03T22:00:26.626Z,95893.69
2023-04-03T22:03:03.997Z,95871.69
2023-04-03T22:05:37.607Z,95874.75
2023-04-03T22:08:04.623Z,95877.44
2023-04-03T22:10:31.969Z,95874.75
2023-04-03T22:12:58.809Z,95878.91
2023-04-03T22:15:26.192Z,95873.09
2023-04-03T22:17:53.231Z,95877.97
2023-04-03T22:20:20.793Z,95872.19
2023-04-03T22:22:50.810Z,95876.28
2023-04-03T22:25:17.854Z,95873.59
2023-04-03T22:27:44.880Z,95879.34
2023-04-03T22:30:12.367Z,95873.81
2023-04-03T22:32:39.262Z,95869.47
2023-04-03T22:35:07.375Z,95864.72
2023-04-03T22:37:34.342Z,95871.47
2023-04-03T22:40:01.737Z,95864.44
2023-04-03T22:42:28.715Z,95868.78
2023-04-03T22:44:55.538Z,95866.94
2023-04-03T22:47:22.488Z,95861.78
2023-04-03T22:49:49.368Z,95866.06
2023-04-03T22:52:17.275Z,95868.66
2023-04-03T22:54:44.302Z,95864.31
2023-04-03T22:57:11.701Z,95866.63
2023-04-03T22:59:39.011Z,95863.34
2023-04-03T23:02:06.683Z,95852.75
2023-04-03T23:04:33.685Z,95855.63
2023-04-03T23:07:00.516Z,95856.84
2023-04-03T23:09:27.428Z,95851.88
2023-04-03T23:11:54.484Z,95851.22
2023-04-03T23:14:22.524Z,95859.59
2023-04-03T23:16:49.441Z,95865.31
2023-04-03T23:19:17.038Z,95864.88
2023-04-03T23:21:46.195Z,95866.72
2023-04-03T23:24:13.142Z,95863.59
2023-04-03T23:26:39.990Z,95867.28
2023-04-03T23:29:06.964Z,95861.59
2023-04-03T23:31:33.828Z,95869.75
2023-04-03T23:34:00.755Z,95857.81
2023-04-03T23:36:27.629Z,95852.50
2023-04-03T23:38:57.671Z,95855.66
2023-04-03T23:41:25.198Z,95861.97
2023-04-03T23:43:52.185Z,95866.69
2023-04-03T23:46:20.165Z,95853.97
2023-04-03T23:48:47.023Z,95843.31
2023-04-03T23:51:13.922Z,95858.69
2023-04-03T23:53:41.278Z,95856.56
2023-04-03T23:56:11.789Z,95848.13
2023-04-03T23:58:38.976Z,95849.97
